aviador You're here:

UIUU Decoded Metar

ULAN-UDE in RUSSIA
Report Time2018-06-18 18:30:00
UTC Time2018-06-18 19:10:07
Flight Rules vfr VFR
Wind270° at 4 kt
W.Decomp.*RWY 26: 3.9 kt HW 1.0 kt RCW
RWY 32: 2.8 kt HW 2.8 kt LCW
W.Rank270° ranks 6
Current wind is below 270° avg. (5.8)
Visibility9999 m
Phenomena:N/A
Clouds:N/A
Expected CloudBase > 3,200 ft AGL from Temp-Dew spread
CeilingNone
Temp14°C (ISA +2)
Dew Point06°C (59% RH)
AAT11.7°C
QNH1012 hPa
Density Alt2,136 ft
Elevation1,690 ft
Report Wrong Elevation
Raw Report
METAR UIUU 181830Z 27002MPS 9999 NSC 14/06 Q1012 R26/60D NOSIG RMK
QFE715/0953=

Extra information for UIUU:More info

Metar Taf Metar & Taf Last 4 Metars F.Rules Stats Wind Profile Meteogram Temp Stats Airport Information Weather charts Add Link Nearby VenuesMetar ALERT Operation Metar Decoded Social comments